createdAt,value
2022-12-06T00:02:11.740Z,1.60
2022-12-06T00:05:13.452Z,3.47
2022-12-06T00:08:15.275Z,0.10
2022-12-06T00:11:18.233Z,1.33
2022-12-06T00:14:20.021Z,1.00
2022-12-06T00:17:22.135Z,1.88
2022-12-06T00:20:23.795Z,0.68
2022-12-06T00:23:30.228Z,1.30
2022-12-06T00:26:35.936Z,0.20
2022-12-06T00:29:38.207Z,3.83
2022-12-06T00:32:39.803Z,0.65
2022-12-06T00:35:41.359Z,1.95
2022-12-06T00:38:43.291Z,0.47
2022-12-06T00:41:45.134Z,2.25
2022-12-06T00:44:46.732Z,2.47
2022-12-06T00:47:48.292Z,1.85
2022-12-06T00:50:50.029Z,2.20
2022-12-06T00:53:51.801Z,1.45
2022-12-06T00:56:53.560Z,2.25
2022-12-06T00:59:55.134Z,1.80
2022-12-06T01:03:00.162Z,2.05
2022-12-06T01:06:03.745Z,1.30
2022-12-06T01:09:07.002Z,0.93
2022-12-06T01:12:08.667Z,1.00
2022-12-06T01:15:10.575Z,1.38
2022-12-06T01:18:12.171Z,1.10
2022-12-06T01:21:15.263Z,2.00
2022-12-06T01:24:16.913Z,0.52
2022-12-06T01:27:18.678Z,1.90
2022-12-06T01:30:20.389Z,2.25
2022-12-06T01:33:22.077Z,1.20
2022-12-06T01:36:24.407Z,1.60
2022-12-06T01:39:25.976Z,2.25
2022-12-06T01:42:27.605Z,2.70
2022-12-06T01:45:29.274Z,2.22
2022-12-06T01:48:30.927Z,2.22
2022-12-06T01:51:32.799Z,2.40
2022-12-06T01:54:34.739Z,2.40
2022-12-06T01:57:36.558Z,1.83
2022-12-06T02:00:38.492Z,2.45
2022-12-06T02:03:40.425Z,1.52
2022-12-06T02:06:42.169Z,1.48
2022-12-06T02:09:44.882Z,1.50
2022-12-06T02:12:48.655Z,1.65
2022-12-06T02:16:01.387Z,1.52
2022-12-06T02:19:09.189Z,1.80
2022-12-06T02:22:29.504Z,1.88
2022-12-06T02:25:50.093Z,1.65
2022-12-06T02:28:51.674Z,1.67
2022-12-06T02:31:58.225Z,2.03
2022-12-06T02:35:03.508Z,1.88
2022-12-06T02:38:13.205Z,1.30
2022-12-06T02:41:21.004Z,1.20
2022-12-06T02:44:35.602Z,1.23
2022-12-06T02:47:37.848Z,0.88
2022-12-06T02:50:42.248Z,1.52
2022-12-06T02:53:46.980Z,1.35
2022-12-06T02:56:48.608Z,1.48
2022-12-06T02:59:51.228Z,1.42
2022-12-06T03:02:57.903Z,1.65
2022-12-06T03:06:02.563Z,1.38
2022-12-06T03:09:29.202Z,1.85
2022-12-06T03:12:39.658Z,1.17
2022-12-06T03:15:58.912Z,1.60
2022-12-06T03:19:06.404Z,2.05
2022-12-06T03:22:14.507Z,2.00
2022-12-06T03:25:16.880Z,0.95
2022-12-06T03:28:19.604Z,1.65
2022-12-06T03:31:23.073Z,1.92
2022-12-06T03:34:28.575Z,1.23
2022-12-06T03:37:31.793Z,1.40
2022-12-06T03:40:35.260Z,1.83
2022-12-06T03:43:36.912Z,2.35
2022-12-06T03:46:41.227Z,2.10
2022-12-06T03:49:45.410Z,1.23
2022-12-06T03:52:47.477Z,2.05
2022-12-06T03:55:49.050Z,1.20
2022-12-06T03:58:50.803Z,2.42
2022-12-06T04:01:52.429Z,1.02
2022-12-06T04:04:54.071Z,2.25
2022-12-06T04:07:55.888Z,1.30
2022-12-06T04:10:57.772Z,1.48
2022-12-06T04:13:59.441Z,2.28
2022-12-06T04:17:19.660Z,2.05
2022-12-06T04:20:21.231Z,1.88
2022-12-06T04:23:22.935Z,2.10
2022-12-06T04:26:24.903Z,2.30
2022-12-06T04:29:44.890Z,1.55
2022-12-06T04:33:05.222Z,1.52
2022-12-06T04:36:25.861Z,1.58
2022-12-06T04:39:27.741Z,1.27
2022-12-06T04:42:47.772Z,0.77
2022-12-06T04:45:51.160Z,2.03
2022-12-06T04:48:52.774Z,1.98
2022-12-06T04:51:54.617Z,1.70
2022-12-06T04:54:56.177Z,1.40
2022-12-06T04:57:57.784Z,2.22
2022-12-06T05:00:59.495Z,2.25
2022-12-06T05:04:01.212Z,0.77
2022-12-06T05:07:02.823Z,0.50
2022-12-06T05:10:04.720Z,0.93
2022-12-06T05:13:06.378Z,1.40
2022-12-06T05:16:08.486Z,1.40
2022-12-06T05:19:10.452Z,0.15
2022-12-06T05:22:12.046Z,0.98
2022-12-06T05:25:14.082Z,1.70
2022-12-06T05:28:15.750Z,0.50
2022-12-06T05:31:18.008Z,1.48
2022-12-06T05:34:19.679Z,1.10
2022-12-06T05:37:21.367Z,0.95
2022-12-06T05:40:23.118Z,1.23
2022-12-06T05:43:24.787Z,0.43
2022-12-06T05:46:26.434Z,0.20
2022-12-06T05:49:28.056Z,0.13
2022-12-06T05:52:29.763Z,1.92
2022-12-06T05:55:31.353Z,1.73
2022-12-06T05:58:33.365Z,0.88
2022-12-06T06:01:34.986Z,0.70
2022-12-06T06:04:37.068Z,0.77
2022-12-06T06:07:39.094Z,0.80
2022-12-06T06:10:40.829Z,1.00
2022-12-06T06:13:42.477Z,1.00
2022-12-06T06:16:44.153Z,0.98
2022-12-06T06:19:50.090Z,1.35
2022-12-06T06:22:54.473Z,0.63
2022-12-06T06:25:56.180Z,0.45
2022-12-06T06:28:57.774Z,0.90
2022-12-06T06:31:59.615Z,0.50
2022-12-06T06:35:01.304Z,1.15
2022-12-06T06:38:03.462Z,0.98
2022-12-06T06:41:05.681Z,0.38
2022-12-06T06:44:07.278Z,0.70
2022-12-06T06:47:08.882Z,1.35
2022-12-06T06:50:10.697Z,1.35
2022-12-06T06:53:12.341Z,0.93
2022-12-06T06:56:14.181Z,1.15
2022-12-06T06:59:15.831Z,0.90
2022-12-06T07:02:18.014Z,1.48
2022-12-06T07:05:19.643Z,0.65
2022-12-06T07:08:21.513Z,0.75
2022-12-06T07:11:23.767Z,1.20
2022-12-06T07:14:25.376Z,0.40
2022-12-06T07:17:27.020Z,0.32
2022-12-06T07:20:28.864Z,0.95
2022-12-06T07:23:30.995Z,2.35
2022-12-06T07:26:32.648Z,1.52
2022-12-06T07:29:34.353Z,0.93
2022-12-06T07:32:37.007Z,1.20
2022-12-06T07:39:00.866Z,1.30
2022-12-06T07:42:21.053Z,0.98
2022-12-06T07:45:26.726Z,1.60
2022-12-06T07:48:28.330Z,0.68
2022-12-06T07:51:29.937Z,1.50
2022-12-06T07:54:31.755Z,0.88
2022-12-06T07:57:37.366Z,0.60
2022-12-06T08:00:43.500Z,0.70
2022-12-06T08:03:45.194Z,0.52
2022-12-06T08:06:46.944Z,0.98
2022-12-06T08:09:48.614Z,0.03
2022-12-06T08:12:50.380Z,0.45
2022-12-06T08:15:52.177Z,0.50
2022-12-06T08:18:55.027Z,0.70
2022-12-06T08:21:58.945Z,0.38
2022-12-06T08:25:00.578Z,0.25
2022-12-06T08:28:02.257Z,0.65
2022-12-06T08:31:08.443Z,0.52
2022-12-06T08:34:10.194Z,0.50
2022-12-06T08:37:12.437Z,0.00
2022-12-06T08:40:14.198Z,0.00
2022-12-06T08:43:15.847Z,0.45
2022-12-06T08:46:17.474Z,0.43
2022-12-06T08:49:19.176Z,0.40
2022-12-06T08:52:22.026Z,0.73
2022-12-06T08:55:23.804Z,0.32
2022-12-06T08:58:25.643Z,0.00
2022-12-06T09:01:34.152Z,0.25
2022-12-06T09:04:39.206Z,0.52
2022-12-06T09:07:40.884Z,0.90
2022-12-06T09:10:43.163Z,0.20
2022-12-06T09:13:44.921Z,0.50
2022-12-06T09:16:46.555Z,0.30
2022-12-06T09:19:48.213Z,0.10
2022-12-06T09:22:49.787Z,0.00
2022-12-06T09:25:51.426Z,0.25
2022-12-06T09:28:54.177Z,0.25
2022-12-06T09:31:56.104Z,0.50
2022-12-06T09:34:57.747Z,0.08
2022-12-06T09:37:59.834Z,0.08
2022-12-06T09:41:11.524Z,0.28
2022-12-06T09:44:19.145Z,0.10
2022-12-06T09:47:29.929Z,0.25
2022-12-06T09:50:31.638Z,0.10
2022-12-06T09:53:43.256Z,0.08
2022-12-06T09:56:51.495Z,0.08
2022-12-06T10:00:11.434Z,0.20
2022-12-06T10:03:21.563Z,0.20
2022-12-06T10:06:25.081Z,0.03
2022-12-06T10:09:56.151Z,0.00
2022-12-06T10:13:02.836Z,0.30
2022-12-06T10:16:07.499Z,0.40
2022-12-06T10:19:18.426Z,0.10
2022-12-06T10:22:40.427Z,0.80
2022-12-06T10:25:46.590Z,2.35
2022-12-06T10:28:53.229Z,0.00
2022-12-06T10:32:15.070Z,0.30
2022-12-06T10:35:19.275Z,0.32
2022-12-06T10:38:47.668Z,0.85
2022-12-06T10:42:02.162Z,0.00
2022-12-06T10:45:33.844Z,0.08
2022-12-06T10:48:38.891Z,0.40
2022-12-06T10:52:09.850Z,0.00
2022-12-06T10:55:11.622Z,0.95
2022-12-06T10:58:29.699Z,0.90
2022-12-06T11:01:36.905Z,0.00
2022-12-06T11:04:39.008Z,0.57
2022-12-06T11:07:42.894Z,1.10
2022-12-06T11:10:45.611Z,0.65
2022-12-06T11:13:48.999Z,1.10
2022-12-06T11:16:55.169Z,0.90
2022-12-06T11:20:01.391Z,0.75
2022-12-06T11:23:06.749Z,0.80
2022-12-06T11:26:11.402Z,0.20
2022-12-06T11:29:14.483Z,1.30
2022-12-06T11:32:16.876Z,0.68
2022-12-06T11:35:23.842Z,1.33
2022-12-06T11:38:25.596Z,0.65
2022-12-06T11:41:29.969Z,0.30
2022-12-06T11:44:38.554Z,0.98
2022-12-06T11:47:40.268Z,1.48
2022-12-06T11:50:42.658Z,0.00
2022-12-06T11:53:45.428Z,0.13
2022-12-06T11:56:47.052Z,1.02
2022-12-06T12:00:07.186Z,0.00
2022-12-06T12:03:28.265Z,0.28
2022-12-06T12:06:30.034Z,1.30
2022-12-06T12:09:35.518Z,0.35
2022-12-06T12:13:06.342Z,1.27
2022-12-06T12:16:19.453Z,1.13
2022-12-06T12:19:40.662Z,1.63
2022-12-06T12:22:45.680Z,0.35
2022-12-06T12:26:02.562Z,1.05
2022-12-06T12:29:13.377Z,1.48
2022-12-06T12:32:18.136Z,1.15
2022-12-06T12:35:22.784Z,0.95
2022-12-06T12:38:27.658Z,1.60
2022-12-06T12:41:32.943Z,1.15
2022-12-06T12:44:38.743Z,1.95
2022-12-06T12:47:55.104Z,1.20
2022-12-06T12:51:00.848Z,1.13
2022-12-06T12:54:04.398Z,1.37
2022-12-06T12:57:12.475Z,1.58
2022-12-06T13:00:16.003Z,0.28
2022-12-06T13:03:49.554Z,0.00
2022-12-06T13:06:47.465Z,1.10
2022-12-06T13:09:52.026Z,0.35
2022-12-06T13:12:59.698Z,0.28
2022-12-06T13:16:05.874Z,0.00
2022-12-06T13:19:14.376Z,0.03
2022-12-06T13:22:20.256Z,0.08
2022-12-06T13:25:21.867Z,0.40
2022-12-06T13:28:27.944Z,1.23
2022-12-06T13:31:33.374Z,0.10
2022-12-06T13:34:38.101Z,0.20
2022-12-06T13:38:02.567Z,0.32
2022-12-06T13:41:05.449Z,0.38
2022-12-06T13:44:26.968Z,1.10
2022-12-06T13:47:28.522Z,0.35
2022-12-06T13:50:33.209Z,1.75
2022-12-06T13:53:54.765Z,1.23
2022-12-06T13:56:57.665Z,2.08
2022-12-06T13:59:59.734Z,1.33
2022-12-06T14:03:03.183Z,1.23
2022-12-06T14:06:13.993Z,0.80
2022-12-06T14:09:17.167Z,0.82
2022-12-06T14:12:22.959Z,1.02
2022-12-06T14:15:24.570Z,0.50
2022-12-06T14:18:27.841Z,0.75
2022-12-06T14:21:31.214Z,0.90
2022-12-06T14:24:37.238Z,0.40
2022-12-06T14:27:43.534Z,1.38
2022-12-06T14:30:46.229Z,1.30
2022-12-06T14:33:48.330Z,1.13
2022-12-06T14:36:49.929Z,0.52
2022-12-06T14:39:52.606Z,1.90
2022-12-06T14:43:03.676Z,0.28
2022-12-06T14:46:06.715Z,1.38
2022-12-06T14:49:31.993Z,1.17
2022-12-06T14:52:33.697Z,4.25
2022-12-06T14:55:36.639Z,1.27
2022-12-06T14:58:42.661Z,0.30
2022-12-06T15:01:47.132Z,1.65
2022-12-06T15:04:48.794Z,2.72
2022-12-06T15:07:50.469Z,0.63
2022-12-06T15:10:59.296Z,1.05
2022-12-06T15:14:14.321Z,0.88
2022-12-06T15:17:19.993Z,0.43
2022-12-06T15:20:21.609Z,0.17
2022-12-06T15:23:26.143Z,0.40
2022-12-06T15:26:27.641Z,0.52
2022-12-06T15:29:29.234Z,0.55
2022-12-06T15:32:30.895Z,1.55
2022-12-06T15:35:32.481Z,0.93
2022-12-06T15:38:34.070Z,2.80
2022-12-06T15:41:38.145Z,0.68
2022-12-06T15:44:43.004Z,0.35
2022-12-06T15:47:49.686Z,0.30
2022-12-06T15:50:51.354Z,0.22
2022-12-06T15:53:53.728Z,0.28
2022-12-06T15:56:55.381Z,0.60
2022-12-06T15:59:57.095Z,0.20
2022-12-06T16:02:59.830Z,0.40
2022-12-06T16:06:01.505Z,3.30
2022-12-06T16:09:03.114Z,0.70
2022-12-06T16:12:04.966Z,0.95
2022-12-06T16:15:06.763Z,2.10
2022-12-06T16:18:08.323Z,0.45
2022-12-06T16:21:18.048Z,1.70
2022-12-06T16:24:19.823Z,0.93
2022-12-06T16:27:21.401Z,0.90
2022-12-06T16:30:32.905Z,0.40
2022-12-06T16:33:34.515Z,1.52
2022-12-06T16:36:52.377Z,1.92
2022-12-06T16:39:53.963Z,0.80
2022-12-06T16:42:55.562Z,1.67
2022-12-06T16:45:57.161Z,0.20
2022-12-06T16:49:36.859Z,1.98
2022-12-06T16:52:24.489Z,0.15
2022-12-06T16:55:26.114Z,1.55
2022-12-06T16:58:27.755Z,1.67
2022-12-06T17:01:35.685Z,1.77
2022-12-06T17:04:37.355Z,2.15
2022-12-06T17:07:41.019Z,1.77
2022-12-06T17:10:42.662Z,2.20
2022-12-06T17:13:44.223Z,1.50
2022-12-06T17:16:46.555Z,2.33
2022-12-06T17:19:48.604Z,1.33
2022-12-06T17:22:50.207Z,1.60
2022-12-06T17:25:58.083Z,1.80
2022-12-06T17:29:00.421Z,2.67
2022-12-06T17:32:02.336Z,2.17
2022-12-06T17:35:04.323Z,3.33
2022-12-06T17:38:06.288Z,2.92
2022-12-06T17:41:37.245Z,2.47
2022-12-06T17:44:39.984Z,2.90
2022-12-06T17:47:41.593Z,4.45
2022-12-06T17:50:43.195Z,4.07
2022-12-06T17:53:44.776Z,3.13
2022-12-06T17:56:46.996Z,3.25
2022-12-06T17:59:48.723Z,3.65
2022-12-06T18:02:50.473Z,2.30
2022-12-06T18:05:52.105Z,3.28
2022-12-06T18:08:53.942Z,2.47
2022-12-06T18:11:56.188Z,4.63
2022-12-06T18:14:57.790Z,3.78
2022-12-06T18:17:59.375Z,5.07
2022-12-06T18:21:04.722Z,4.40
2022-12-06T18:24:25.541Z,4.10
2022-12-06T18:27:28.216Z,2.30
2022-12-06T18:30:29.789Z,2.97
2022-12-06T18:33:31.962Z,4.82
2022-12-06T18:36:33.627Z,4.25
2022-12-06T18:39:35.301Z,3.90
2022-12-06T18:42:38.493Z,4.00
2022-12-06T18:45:40.247Z,3.22
2022-12-06T18:48:43.179Z,3.22
2022-12-06T18:51:44.821Z,3.67
2022-12-06T18:54:46.427Z,3.22
2022-12-06T18:57:47.986Z,2.40
2022-12-06T19:00:49.670Z,3.58
2022-12-06T19:03:51.574Z,2.53
2022-12-06T19:06:53.274Z,3.22
2022-12-06T19:09:54.855Z,2.78
2022-12-06T19:12:58.859Z,3.22
2022-12-06T19:16:04.311Z,3.42
2022-12-06T19:19:11.305Z,4.07
2022-12-06T19:22:16.658Z,3.38
2022-12-06T19:25:18.330Z,2.67
2022-12-06T19:28:19.923Z,3.45
2022-12-06T19:31:24.821Z,3.78
2022-12-06T19:34:27.066Z,5.68
2022-12-06T19:37:29.828Z,2.88
2022-12-06T19:40:31.390Z,2.63
2022-12-06T19:43:51.775Z,2.22
2022-12-06T19:46:53.356Z,3.20
2022-12-06T19:49:54.971Z,3.60
2022-12-06T19:52:56.568Z,2.17
2022-12-06T19:55:58.176Z,1.65
2022-12-06T19:59:00.082Z,2.30
2022-12-06T20:02:02.233Z,1.55
2022-12-06T20:05:04.016Z,1.67
2022-12-06T20:08:05.698Z,1.63
2022-12-06T20:11:08.615Z,2.35
2022-12-06T20:14:11.504Z,1.75
2022-12-06T20:17:14.398Z,1.33
2022-12-06T20:20:16.009Z,1.27
2022-12-06T20:23:17.622Z,1.48
2022-12-06T20:26:19.620Z,2.00
2022-12-06T20:29:21.554Z,3.70
2022-12-06T20:32:23.211Z,1.02
2022-12-06T20:35:26.628Z,0.73
2022-12-06T20:38:28.239Z,4.45
2022-12-06T20:41:30.887Z,1.27
2022-12-06T20:44:32.565Z,2.35
2022-12-06T20:47:34.150Z,1.25
2022-12-06T20:50:38.382Z,1.40
2022-12-06T20:53:40.870Z,1.25
2022-12-06T20:56:43.130Z,1.45
2022-12-06T20:59:44.818Z,1.77
2022-12-06T21:02:46.502Z,0.95
2022-12-06T21:05:55.027Z,1.38
2022-12-06T21:08:56.907Z,1.27
2022-12-06T21:11:58.488Z,1.55
2022-12-06T21:15:00.103Z,2.25
2022-12-06T21:18:01.773Z,2.47
2022-12-06T21:21:03.472Z,3.15
2022-12-06T21:24:06.683Z,2.53
2022-12-06T21:27:08.285Z,1.75
2022-12-06T21:30:10.106Z,2.22
2022-12-06T21:33:11.729Z,1.52
2022-12-06T21:36:13.376Z,1.70
2022-12-06T21:39:15.180Z,0.45
2022-12-06T21:42:17.559Z,1.90
2022-12-06T21:45:19.312Z,1.10
2022-12-06T21:48:20.881Z,2.63
2022-12-06T21:51:23.583Z,1.95
2022-12-06T21:54:25.141Z,1.23
2022-12-06T21:57:26.825Z,2.72
2022-12-06T22:00:28.388Z,1.90
2022-12-06T22:03:30.070Z,3.63
2022-12-06T22:06:32.335Z,2.67
2022-12-06T22:09:33.937Z,1.77
2022-12-06T22:12:35.588Z,3.13
2022-12-06T22:15:37.545Z,2.38
2022-12-06T22:18:44.804Z,2.67
2022-12-06T22:21:47.870Z,2.20
2022-12-06T22:24:49.491Z,2.78
2022-12-06T22:27:51.719Z,2.55
2022-12-06T22:30:53.388Z,2.97
2022-12-06T22:33:55.824Z,2.63
2022-12-06T22:36:57.439Z,2.47
2022-12-06T22:39:59.249Z,2.70
2022-12-06T22:43:01.099Z,2.70
2022-12-06T22:46:03.959Z,2.85
2022-12-06T22:49:05.919Z,2.22
2022-12-06T22:52:07.511Z,2.67
2022-12-06T22:55:09.220Z,1.90
2022-12-06T22:58:10.773Z,2.78
2022-12-06T23:01:16.340Z,1.92
2022-12-06T23:04:18.273Z,1.70
2022-12-06T23:07:19.851Z,2.47
2022-12-06T23:10:21.428Z,1.92
2022-12-06T23:13:23.016Z,1.35
2022-12-06T23:16:26.621Z,2.63
2022-12-06T23:19:28.212Z,2.60
2022-12-06T23:22:31.680Z,1.98
2022-12-06T23:25:33.243Z,2.00
2022-12-06T23:28:35.060Z,2.75
2022-12-06T23:31:38.101Z,2.42
2022-12-06T23:34:39.740Z,1.67
2022-12-06T23:37:41.787Z,2.70
2022-12-06T23:40:43.431Z,2.78
2022-12-06T23:43:45.102Z,2.83
2022-12-06T23:46:46.786Z,2.30
2022-12-06T23:49:48.443Z,3.20
2022-12-06T23:52:50.983Z,2.40
2022-12-06T23:55:52.918Z,2.83
2022-12-06T23:58:54.839Z,1.42
